sensor_id;sensor_type;location;lat;lon;timestamp;temperature;humidity
13433;DHT22;6789;47.678;9.158;2022-09-30T00:02:42;10.30;99.90
13433;DHT22;6789;47.678;9.158;2022-09-30T00:07:49;10.30;99.90
13433;DHT22;6789;47.678;9.158;2022-09-30T00:12:40;10.40;99.90
13433;DHT22;6789;47.678;9.158;2022-09-30T00:17:32;10.30;99.90
13433;DHT22;6789;47.678;9.158;2022-09-30T00:22:39;10.40;99.90
13433;DHT22;6789;47.678;9.158;2022-09-30T00:27:31;10.40;99.90
13433;DHT22;6789;47.678;9.158;2022-09-30T00:32:37;10.50;99.90
13433;DHT22;6789;47.678;9.158;2022-09-30T00:37:29;10.50;99.90
13433;DHT22;6789;47.678;9.158;2022-09-30T00:42:21;10.40;99.90
13433;DHT22;6789;47.678;9.158;2022-09-30T00:47:56;10.40;99.90
13433;DHT22;6789;47.678;9.158;2022-09-30T00:53:23;10.50;99.90
13433;DHT22;6789;47.678;9.158;2022-09-30T01:03:25;10.40;99.90
13433;DHT22;6789;47.678;9.158;2022-09-30T01:08:25;10.40;99.90
13433;DHT22;6789;47.678;9.158;2022-09-30T01:13:51;10.40;99.90
13433;DHT22;6789;47.678;9.158;2022-09-30T01:40:10;10.40;99.90
13433;DHT22;6789;47.678;9.158;2022-09-30T01:51:05;10.40;99.90
13433;DHT22;6789;47.678;9.158;2022-09-30T01:56:17;10.40;99.90
13433;DHT22;6789;47.678;9.158;2022-09-30T02:01:23;10.40;99.90
13433;DHT22;6789;47.678;9.158;2022-09-30T02:06:29;10.50;99.90
13433;DHT22;6789;47.678;9.158;2022-09-30T02:11:28;10.40;99.90
13433;DHT22;6789;47.678;9.158;2022-09-30T02:16:31;10.50;99.90
13433;DHT22;6789;47.678;9.158;2022-09-30T02:21:59;10.40;99.90
13433;DHT22;6789;47.678;9.158;2022-09-30T02:26:57;10.40;99.90
13433;DHT22;6789;47.678;9.158;2022-09-30T02:31:56;10.40;99.90
13433;DHT22;6789;47.678;9.158;2022-09-30T02:36:58;10.40;99.90
13433;DHT22;6789;47.678;9.158;2022-09-30T02:42:30;10.40;99.90
13433;DHT22;6789;47.678;9.158;2022-09-30T02:53:32;10.50;99.90
13433;DHT22;6789;47.678;9.158;2022-09-30T02:58:36;10.40;99.90
13433;DHT22;6789;47.678;9.158;2022-09-30T03:03:34;10.40;99.90
13433;DHT22;6789;47.678;9.158;2022-09-30T03:08:31;10.40;99.90
13433;DHT22;6789;47.678;9.158;2022-09-30T03:24:41;10.30;99.90
13433;DHT22;6789;47.678;9.158;2022-09-30T03:29:30;10.40;99.90
13433;DHT22;6789;47.678;9.158;2022-09-30T03:34:59;10.40;99.90
13433;DHT22;6789;47.678;9.158;2022-09-30T03:39:55;10.40;99.90
13433;DHT22;6789;47.678;9.158;2022-09-30T03:45:24;10.40;99.90
13433;DHT22;6789;47.678;9.158;2022-09-30T03:50:31;10.40;99.90
13433;DHT22;6789;47.678;9.158;2022-09-30T03:55:49;10.40;99.90
13433;DHT22;6789;47.678;9.158;2022-09-30T04:00:47;10.40;99.90
13433;DHT22;6789;47.678;9.158;2022-09-30T04:05:58;10.40;99.90
13433;DHT22;6789;47.678;9.158;2022-09-30T04:11:04;10.40;99.90
13433;DHT22;6789;47.678;9.158;2022-09-30T04:16:10;10.30;99.90
13433;DHT22;6789;47.678;9.158;2022-09-30T04:21:16;10.30;99.90
13433;DHT22;6789;47.678;9.158;2022-09-30T04:26:22;10.30;99.90
13433;DHT22;6789;47.678;9.158;2022-09-30T04:31:28;10.30;99.90
13433;DHT22;6789;47.678;9.158;2022-09-30T04:36:34;10.20;99.90
13433;DHT22;6789;47.678;9.158;2022-09-30T04:41:40;10.30;99.90
13433;DHT22;6789;47.678;9.158;2022-09-30T04:46:47;10.30;99.90
13433;DHT22;6789;47.678;9.158;2022-09-30T04:51:56;10.20;99.90
13433;DHT22;6789;47.678;9.158;2022-09-30T04:57:02;10.20;99.90
13433;DHT22;6789;47.678;9.158;2022-09-30T05:02:08;10.20;99.90
13433;DHT22;6789;47.678;9.158;2022-09-30T05:07:15;10.20;99.90
13433;DHT22;6789;47.678;9.158;2022-09-30T05:12:21;10.30;99.90
13433;DHT22;6789;47.678;9.158;2022-09-30T05:17:29;10.30;99.90
13433;DHT22;6789;47.678;9.158;2022-09-30T05:22:39;10.20;99.90
13433;DHT22;6789;47.678;9.158;2022-09-30T05:27:48;10.30;99.90
13433;DHT22;6789;47.678;9.158;2022-09-30T05:32:55;10.30;99.90
13433;DHT22;6789;47.678;9.158;2022-09-30T05:38:01;10.40;99.90
13433;DHT22;6789;47.678;9.158;2022-09-30T05:43:09;10.40;99.90
13433;DHT22;6789;47.678;9.158;2022-09-30T05:48:15;10.40;99.90
13433;DHT22;6789;47.678;9.158;2022-09-30T05:53:21;10.50;99.90
13433;DHT22;6789;47.678;9.158;2022-09-30T05:58:28;10.40;99.90
13433;DHT22;6789;47.678;9.158;2022-09-30T06:03:34;10.40;99.90
13433;DHT22;6789;47.678;9.158;2022-09-30T06:08:41;10.50;99.90
13433;DHT22;6789;47.678;9.158;2022-09-30T06:13:48;10.50;99.90
13433;DHT22;6789;47.678;9.158;2022-09-30T06:18:55;10.40;99.90
13433;DHT22;6789;47.678;9.158;2022-09-30T06:24:01;10.50;99.90
13433;DHT22;6789;47.678;9.158;2022-09-30T06:29:07;10.50;99.90
13433;DHT22;6789;47.678;9.158;2022-09-30T06:34:13;10.60;99.90
13433;DHT22;6789;47.678;9.158;2022-09-30T06:39:19;10.80;99.90
13433;DHT22;6789;47.678;9.158;2022-09-30T06:44:19;10.90;99.90
13433;DHT22;6789;47.678;9.158;2022-09-30T06:49:27;10.90;99.90
13433;DHT22;6789;47.678;9.158;2022-09-30T06:54:51;10.90;99.90
13433;DHT22;6789;47.678;9.158;2022-09-30T07:00:01;11.00;99.90
13433;DHT22;6789;47.678;9.158;2022-09-30T07:05:08;11.00;99.90
13433;DHT22;6789;47.678;9.158;2022-09-30T07:10:18;11.10;99.90
13433;DHT22;6789;47.678;9.158;2022-09-30T07:15:26;11.20;99.90
13433;DHT22;6789;47.678;9.158;2022-09-30T07:20:32;11.30;99.90
13433;DHT22;6789;47.678;9.158;2022-09-30T07:25:52;11.30;99.90
13433;DHT22;6789;47.678;9.158;2022-09-30T07:31:05;11.20;99.90
13433;DHT22;6789;47.678;9.158;2022-09-30T07:36:14;11.30;99.90
13433;DHT22;6789;47.678;9.158;2022-09-30T07:41:26;11.40;99.90
13433;DHT22;6789;47.678;9.158;2022-09-30T07:46:35;11.30;99.90
13433;DHT22;6789;47.678;9.158;2022-09-30T07:51:44;11.40;99.90
13433;DHT22;6789;47.678;9.158;2022-09-30T07:56:51;11.40;99.90
13433;DHT22;6789;47.678;9.158;2022-09-30T08:01:57;11.30;99.90
13433;DHT22;6789;47.678;9.158;2022-09-30T08:07:03;11.30;99.90
13433;DHT22;6789;47.678;9.158;2022-09-30T08:12:10;11.30;99.90
13433;DHT22;6789;47.678;9.158;2022-09-30T08:17:16;11.50;99.90
13433;DHT22;6789;47.678;9.158;2022-09-30T08:22:22;11.60;99.90
13433;DHT22;6789;47.678;9.158;2022-09-30T08:27:28;11.70;99.90
13433;DHT22;6789;47.678;9.158;2022-09-30T08:32:34;11.80;99.90
13433;DHT22;6789;47.678;9.158;2022-09-30T08:37:40;11.90;99.90
13433;DHT22;6789;47.678;9.158;2022-09-30T08:48:22;12.10;99.90
13433;DHT22;6789;47.678;9.158;2022-09-30T08:53:41;12.20;99.90
13433;DHT22;6789;47.678;9.158;2022-09-30T08:58:55;12.40;99.90
13433;DHT22;6789;47.678;9.158;2022-09-30T09:04:07;12.40;99.90
13433;DHT22;6789;47.678;9.158;2022-09-30T09:20:15;12.70;99.90
13433;DHT22;6789;47.678;9.158;2022-09-30T09:25:32;12.80;99.90
13433;DHT22;6789;47.678;9.158;2022-09-30T09:30:48;12.50;99.90
13433;DHT22;6789;47.678;9.158;2022-09-30T09:47:13;13.30;99.90
13433;DHT22;6789;47.678;9.158;2022-09-30T09:52:56;13.70;99.90
13433;DHT22;6789;47.678;9.158;2022-09-30T09:58:15;13.80;99.90
13433;DHT22;6789;47.678;9.158;2022-09-30T10:03:26;13.70;99.90
13433;DHT22;6789;47.678;9.158;2022-09-30T10:08:36;13.60;99.90
13433;DHT22;6789;47.678;9.158;2022-09-30T10:13:44;13.60;99.90
13433;DHT22;6789;47.678;9.158;2022-09-30T10:18:52;13.70;99.90
13433;DHT22;6789;47.678;9.158;2022-09-30T10:24:18;13.60;99.90
13433;DHT22;6789;47.678;9.158;2022-09-30T10:29:46;13.90;99.90
13433;DHT22;6789;47.678;9.158;2022-09-30T10:35:19;13.90;99.90
13433;DHT22;6789;47.678;9.158;2022-09-30T10:40:32;13.70;99.90
13433;DHT22;6789;47.678;9.158;2022-09-30T10:45:44;13.90;99.90
13433;DHT22;6789;47.678;9.158;2022-09-30T10:55:59;13.20;99.90
13433;DHT22;6789;47.678;9.158;2022-09-30T11:01:34;13.60;99.90
13433;DHT22;6789;47.678;9.158;2022-09-30T11:06:47;14.00;99.90
13433;DHT22;6789;47.678;9.158;2022-09-30T11:12:28;14.10;99.90
13433;DHT22;6789;47.678;9.158;2022-09-30T11:17:57;13.70;99.90
13433;DHT22;6789;47.678;9.158;2022-09-30T11:23:32;14.00;99.90
13433;DHT22;6789;47.678;9.158;2022-09-30T11:34:36;14.30;99.90
13433;DHT22;6789;47.678;9.158;2022-09-30T12:01:51;14.50;99.90
13433;DHT22;6789;47.678;9.158;2022-09-30T12:07:21;14.10;99.90
13433;DHT22;6789;47.678;9.158;2022-09-30T12:12:45;14.60;99.90
13433;DHT22;6789;47.678;9.158;2022-09-30T12:18:11;15.30;99.90
13433;DHT22;6789;47.678;9.158;2022-09-30T12:23:34;15.30;99.90
13433;DHT22;6789;47.678;9.158;2022-09-30T12:28:56;15.30;99.90
13433;DHT22;6789;47.678;9.158;2022-09-30T12:52:32;16.00;99.90
13433;DHT22;6789;47.678;9.158;2022-09-30T12:57:42;15.70;99.90
13433;DHT22;6789;47.678;9.158;2022-09-30T13:02:56;15.60;99.90
13433;DHT22;6789;47.678;9.158;2022-09-30T13:13:29;15.70;99.90
13433;DHT22;6789;47.678;9.158;2022-09-30T13:23:54;15.70;99.90
13433;DHT22;6789;47.678;9.158;2022-09-30T13:34:13;15.70;99.90
13433;DHT22;6789;47.678;9.158;2022-09-30T13:39:30;15.80;99.90
13433;DHT22;6789;47.678;9.158;2022-09-30T13:50:33;15.50;99.90
13433;DHT22;6789;47.678;9.158;2022-09-30T13:55:47;15.60;99.90
13433;DHT22;6789;47.678;9.158;2022-09-30T14:06:39;16.00;99.90
13433;DHT22;6789;47.678;9.158;2022-09-30T14:24:34;15.70;99.90
13433;DHT22;6789;47.678;9.158;2022-09-30T14:35:35;15.30;99.90
13433;DHT22;6789;47.678;9.158;2022-09-30T14:40:50;15.40;99.90
13433;DHT22;6789;47.678;9.158;2022-09-30T14:46:04;15.50;99.90
13433;DHT22;6789;47.678;9.158;2022-09-30T14:51:40;15.60;99.90
13433;DHT22;6789;47.678;9.158;2022-09-30T14:56:49;15.80;99.90
13433;DHT22;6789;47.678;9.158;2022-09-30T15:02:00;16.00;99.90
13433;DHT22;6789;47.678;9.158;2022-09-30T15:07:14;15.60;99.90
13433;DHT22;6789;47.678;9.158;2022-09-30T15:12:21;15.10;99.90
13433;DHT22;6789;47.678;9.158;2022-09-30T15:17:37;15.00;99.90
13433;DHT22;6789;47.678;9.158;2022-09-30T15:22:43;14.90;99.90
13433;DHT22;6789;47.678;9.158;2022-09-30T15:27:50;15.00;99.90
13433;DHT22;6789;47.678;9.158;2022-09-30T15:32:59;14.80;99.90
13433;DHT22;6789;47.678;9.158;2022-09-30T15:38:22;14.50;99.90
13433;DHT22;6789;47.678;9.158;2022-09-30T15:43:40;14.40;99.90
13433;DHT22;6789;47.678;9.158;2022-09-30T15:48:49;14.20;99.90
13433;DHT22;6789;47.678;9.158;2022-09-30T15:53:56;14.20;99.90
13433;DHT22;6789;47.678;9.158;2022-09-30T15:59:08;14.20;99.90
13433;DHT22;6789;47.678;9.158;2022-09-30T16:09:33;13.90;99.90
13433;DHT22;6789;47.678;9.158;2022-09-30T16:14:44;13.90;99.90
13433;DHT22;6789;47.678;9.158;2022-09-30T16:25:30;13.70;99.90
13433;DHT22;6789;47.678;9.158;2022-09-30T16:30:42;13.80;99.90
13433;DHT22;6789;47.678;9.158;2022-09-30T16:35:51;13.70;99.90
13433;DHT22;6789;47.678;9.158;2022-09-30T16:40:57;13.60;99.90
13433;DHT22;6789;47.678;9.158;2022-09-30T16:46:05;13.30;99.90
13433;DHT22;6789;47.678;9.158;2022-09-30T16:51:14;13.30;99.90
13433;DHT22;6789;47.678;9.158;2022-09-30T16:56:22;13.00;99.90
13433;DHT22;6789;47.678;9.158;2022-09-30T17:01:28;13.00;99.90
13433;DHT22;6789;47.678;9.158;2022-09-30T17:06:34;12.80;99.90
13433;DHT22;6789;47.678;9.158;2022-09-30T17:11:30;12.60;99.90
13433;DHT22;6789;47.678;9.158;2022-09-30T17:16:25;12.50;99.90
13433;DHT22;6789;47.678;9.158;2022-09-30T17:21:31;12.40;99.90
13433;DHT22;6789;47.678;9.158;2022-09-30T17:26:37;12.20;99.90
13433;DHT22;6789;47.678;9.158;2022-09-30T17:31:33;12.00;99.90
13433;DHT22;6789;47.678;9.158;2022-09-30T17:36:39;11.80;99.90
13433;DHT22;6789;47.678;9.158;2022-09-30T17:41:39;11.60;99.90
13433;DHT22;6789;47.678;9.158;2022-09-30T17:46:52;11.50;99.90
13433;DHT22;6789;47.678;9.158;2022-09-30T17:52:06;11.40;99.90
13433;DHT22;6789;47.678;9.158;2022-09-30T17:57:13;11.40;99.90
13433;DHT22;6789;47.678;9.158;2022-09-30T18:02:19;11.40;99.90
13433;DHT22;6789;47.678;9.158;2022-09-30T18:07:13;11.40;99.90
13433;DHT22;6789;47.678;9.158;2022-09-30T18:12:19;11.30;99.90
13433;DHT22;6789;47.678;9.158;2022-09-30T18:17:26;11.10;99.90
13433;DHT22;6789;47.678;9.158;2022-09-30T18:22:32;10.90;99.90
13433;DHT22;6789;47.678;9.158;2022-09-30T18:27:26;10.70;99.90
13433;DHT22;6789;47.678;9.158;2022-09-30T18:32:26;10.60;99.90
13433;DHT22;6789;47.678;9.158;2022-09-30T18:37:32;10.60;99.90
13433;DHT22;6789;47.678;9.158;2022-09-30T18:42:38;10.50;99.90
13433;DHT22;6789;47.678;9.158;2022-09-30T18:47:45;10.50;99.90
13433;DHT22;6789;47.678;9.158;2022-09-30T19:04:00;10.40;99.90
13433;DHT22;6789;47.678;9.158;2022-09-30T19:09:08;10.20;99.90
13433;DHT22;6789;47.678;9.158;2022-09-30T19:14:12;10.20;99.90
13433;DHT22;6789;47.678;9.158;2022-09-30T19:19:21;10.10;99.90
13433;DHT22;6789;47.678;9.158;2022-09-30T19:24:27;10.00;99.90
13433;DHT22;6789;47.678;9.158;2022-09-30T19:29:37;10.00;99.90
13433;DHT22;6789;47.678;9.158;2022-09-30T19:34:47;10.10;99.90
13433;DHT22;6789;47.678;9.158;2022-09-30T19:39:54;10.10;99.90
13433;DHT22;6789;47.678;9.158;2022-09-30T19:45:11;10.10;99.90
13433;DHT22;6789;47.678;9.158;2022-09-30T19:50:17;10.20;99.90
13433;DHT22;6789;47.678;9.158;2022-09-30T19:55:24;10.30;99.90
13433;DHT22;6789;47.678;9.158;2022-09-30T20:00:17;10.30;99.90
13433;DHT22;6789;47.678;9.158;2022-09-30T20:05:24;10.40;99.90
13433;DHT22;6789;47.678;9.158;2022-09-30T20:10:24;10.40;99.90
13433;DHT22;6789;47.678;9.158;2022-09-30T20:15:17;10.40;99.90
13433;DHT22;6789;47.678;9.158;2022-09-30T20:20:42;10.30;99.90
13433;DHT22;6789;47.678;9.158;2022-09-30T20:25:53;10.20;99.90
13433;DHT22;6789;47.678;9.158;2022-09-30T20:31:05;10.00;99.90
13433;DHT22;6789;47.678;9.158;2022-09-30T20:36:12;9.90;99.90
13433;DHT22;6789;47.678;9.158;2022-09-30T20:41:18;10.00;99.90
13433;DHT22;6789;47.678;9.158;2022-09-30T20:46:23;9.80;99.90
13433;DHT22;6789;47.678;9.158;2022-09-30T20:51:19;9.60;99.90
13433;DHT22;6789;47.678;9.158;2022-09-30T20:56:28;9.40;99.90
13433;DHT22;6789;47.678;9.158;2022-09-30T21:01:34;9.30;99.90
13433;DHT22;6789;47.678;9.158;2022-09-30T21:06:55;9.20;99.90
13433;DHT22;6789;47.678;9.158;2022-09-30T21:11:51;9.00;99.90
13433;DHT22;6789;47.678;9.158;2022-09-30T21:16:57;9.00;99.90
13433;DHT22;6789;47.678;9.158;2022-09-30T21:22:03;8.90;99.90
13433;DHT22;6789;47.678;9.158;2022-09-30T21:27:13;8.90;99.90
13433;DHT22;6789;47.678;9.158;2022-09-30T21:32:19;8.90;99.90
13433;DHT22;6789;47.678;9.158;2022-09-30T21:37:25;8.90;99.90
13433;DHT22;6789;47.678;9.158;2022-09-30T21:42:31;9.00;99.90
13433;DHT22;6789;47.678;9.158;2022-09-30T21:47:38;9.00;99.90
13433;DHT22;6789;47.678;9.158;2022-09-30T21:52:44;8.90;99.90
13433;DHT22;6789;47.678;9.158;2022-09-30T21:57:51;8.80;99.90
13433;DHT22;6789;47.678;9.158;2022-09-30T22:03:00;8.90;99.90
13433;DHT22;6789;47.678;9.158;2022-09-30T22:08:08;9.00;99.90
13433;DHT22;6789;47.678;9.158;2022-09-30T22:13:15;8.90;99.90
13433;DHT22;6789;47.678;9.158;2022-09-30T22:18:21;9.10;99.90
13433;DHT22;6789;47.678;9.158;2022-09-30T22:23:27;9.00;99.90
13433;DHT22;6789;47.678;9.158;2022-09-30T22:28:33;8.90;99.90
13433;DHT22;6789;47.678;9.158;2022-09-30T22:33:40;8.80;99.90
13433;DHT22;6789;47.678;9.158;2022-09-30T22:39:06;8.70;99.90
13433;DHT22;6789;47.678;9.158;2022-09-30T22:44:12;8.60;99.90
13433;DHT22;6789;47.678;9.158;2022-09-30T22:49:19;8.50;99.90
13433;DHT22;6789;47.678;9.158;2022-09-30T22:54:27;8.40;99.90
13433;DHT22;6789;47.678;9.158;2022-09-30T22:59:33;8.30;99.90
13433;DHT22;6789;47.678;9.158;2022-09-30T23:04:41;8.30;99.90
13433;DHT22;6789;47.678;9.158;2022-09-30T23:09:48;8.30;99.90
13433;DHT22;6789;47.678;9.158;2022-09-30T23:14:54;8.30;99.90
13433;DHT22;6789;47.678;9.158;2022-09-30T23:20:02;8.30;99.90
13433;DHT22;6789;47.678;9.158;2022-09-30T23:25:10;8.20;99.90
13433;DHT22;6789;47.678;9.158;2022-09-30T23:30:17;8.20;99.90
13433;DHT22;6789;47.678;9.158;2022-09-30T23:35:23;8.20;99.90
13433;DHT22;6789;47.678;9.158;2022-09-30T23:40:29;8.10;99.90
13433;DHT22;6789;47.678;9.158;2022-09-30T23:45:37;8.00;99.90
13433;DHT22;6789;47.678;9.158;2022-09-30T23:50:43;8.00;99.90
13433;DHT22;6789;47.678;9.158;2022-09-30T23:55:56;7.90;99.90
